KLNR/LNR METAR and TAF weather

Enter ICAO airport designator
Station Type Date Time Source
KLNR METAR 2019/09/21 04:56 UTC NOAA

KLNR 210456Z AUTO 08005KT 10SM CLR 22/20 A3003 RMK AO2 SLP161 T02220200


Station Type Date Time Source
KLNR Decoded METAR 2019/09/21 04:56 UTC NOAA

LONE ROCK TRI-COUNTY REG, WI, United States (KLNR) 43-13N 090-11W 217M
Sep 21, 2019 - 12:56 AM EDT / 2019.09.21 0456 UTC
Wind: from the E (080 degrees) at 6 MPH (5 KT):0
Visibility: 10 mile(s):0
Sky conditions: clear
Temperature: 72.0 F (22.2 C)
Dew Point: 68.0 F (20.0 C)
Relative Humidity: 87%
Pressure (altimeter): 30.03 in. Hg (1016 hPa)
ob: KLNR 210456Z AUTO 08005KT 10SM CLR 22/20 A3003 RMK AO2 SLP161 T02220200
cycle: 5

Station Type Date Time Source
KLNR TAF UTC NOAA

Error!

Example: see airport list